Terminal Aerodrome Forecast
Issued by NWS Grand Forks, ND

Home | Current Version | Previous Version | Graphics & Text | Print | Product List | Glossary On
Versions: 1 2 3 4 5 6 7 8 9 10 11 12 13 14 15 16
300
FTUS43 KFGF 221553 AAB
TAFFAR
TAF AMD
KFAR 221553Z 2216/2312 16014KT P6SM SKC=

USA.gov is the U.S. government's official web portal to all federal, state and local government web resources and services.